Time;durP1;ratioP1;P1;durP2;ratioP2;P2;SDS_P1;SDS_P2;PMS_P1;PMS_P2;Temp;Humidity;BMP_temperature;BMP_pressure;BME280_temperature;BME280_humidity;BME280_pressure;Samples;Min_cycle;Max_cycle;Signal;HPM_P1;HPM_P2
2023/05/25 00:02:03;;;;;;;10.70;5.80;;;11.00;99.90;;;;;;5015085;28;20223;-70
2023/05/25 00:04:33;;;;;;;11.80;5.87;;;11.00;99.90;;;;;;5011098;28;20234;-68
2023/05/25 00:06:59;;;;;;;13.23;5.37;;;11.00;99.90;;;;;;5021146;28;20478;-69
2023/05/25 00:09:25;;;;;;;19.03;6.20;;;10.90;99.90;;;;;;5015832;28;20885;-69
2023/05/25 00:11:51;;;;;;;6.20;5.20;;;11.00;99.90;;;;;;5021302;28;20425;-70
2023/05/25 00:14:17;;;;;;;13.80;5.40;;;11.00;99.90;;;;;;5014266;28;20412;-70
2023/05/25 00:16:44;;;;;;;9.70;5.23;;;11.10;99.90;;;;;;5021270;28;20433;-69
2023/05/25 00:19:10;;;;;;;12.90;5.33;;;11.20;99.90;;;;;;5015965;28;20505;-69
2023/05/25 00:21:38;;;;;;;10.87;6.77;;;11.20;99.90;;;;;;5020340;28;20419;-70
2023/05/25 00:24:04;;;;;;;6.87;4.77;;;11.30;99.90;;;;;;5017749;28;20427;-69
2023/05/25 00:26:30;;;;;;;10.30;6.23;;;11.20;99.90;;;;;;5019524;28;20478;-69
2023/05/25 00:28:55;;;;;;;6.97;5.10;;;11.30;99.90;;;;;;5016484;28;20423;-69
2023/05/25 00:31:22;;;;;;;12.30;6.83;;;11.30;99.90;;;;;;5011390;28;20237;-68
2023/05/25 00:33:49;;;;;;;7.70;5.13;;;11.30;99.90;;;;;;5022420;28;20468;-69
2023/05/25 00:36:14;;;;;;;10.80;5.70;;;11.30;99.90;;;;;;5011083;28;20279;-70
2023/05/25 00:38:40;;;;;;;8.07;4.93;;;11.40;99.90;;;;;;5023229;28;20412;-69
2023/05/25 00:41:06;;;;;;;10.87;5.53;;;11.40;99.90;;;;;;5012399;28;20235;-69
2023/05/25 00:43:31;;;;;;;8.50;5.07;;;11.40;99.90;;;;;;5025344;28;20559;-69
2023/05/25 00:45:57;;;;;;;9.87;6.23;;;11.40;99.90;;;;;;5017693;28;20226;-70
2023/05/25 00:48:24;;;;;;;16.83;5.30;;;11.40;99.90;;;;;;5020610;28;20198;-70
2023/05/25 00:50:56;;;;;;;6.97;5.03;;;11.40;99.90;;;;;;5017878;28;20180;-71
2023/05/25 00:53:22;;;;;;;6.10;4.60;;;11.40;99.90;;;;;;5015111;28;20419;-69
2023/05/25 00:56:06;;;;;;;5.83;5.33;;;11.40;99.90;;;;;;5019574;28;20504;-69
2023/05/25 00:58:34;;;;;;;8.00;5.30;;;11.40;99.90;;;;;;5012570;28;20179;-68
2023/05/25 01:01:02;;;;;;;7.93;4.73;;;11.30;99.90;;;;;;5021337;28;20445;-69
2023/05/25 01:03:34;;;;;;;8.23;5.07;;;11.30;99.90;;;;;;5012877;28;20429;-70
2023/05/25 01:06:02;;;;;;;7.20;5.10;;;11.20;99.90;;;;;;5020605;28;20667;-69
2023/05/25 01:08:30;;;;;;;11.07;5.00;;;11.10;99.90;;;;;;5026212;28;20813;-69
2023/05/25 01:10:57;;;;;;;8.20;4.77;;;11.10;99.90;;;;;;5018951;28;20939;-69
2023/05/25 01:13:23;;;;;;;8.90;4.97;;;11.10;99.90;;;;;;5019846;28;20470;-71
2023/05/25 01:15:50;;;;;;;10.97;5.20;;;11.00;99.90;;;;;;5012751;28;20547;-69
2023/05/25 01:18:16;;;;;;;8.40;4.73;;;10.90;99.90;;;;;;5009840;28;20454;-69
2023/05/25 01:21:19;;;;;;;10.20;5.20;;;11.00;99.90;;;;;;5015713;28;20464;-69
2023/05/25 01:24:24;;;;;;;6.30;5.10;;;10.90;99.90;;;;;;5012687;28;20835;-69
2023/05/25 01:27:45;;;;;;;7.23;4.67;;;10.80;99.90;;;;;;5005849;28;20520;-68
2023/05/25 01:30:14;;;;;;;9.47;4.90;;;10.70;99.90;;;;;;4946261;28;20445;-69
2023/05/25 01:32:42;;;;;;;8.83;5.27;;;10.70;99.90;;;;;;5016314;28;20782;-68
2023/05/25 01:35:08;;;;;;;8.67;5.40;;;10.60;99.90;;;;;;5020025;28;20403;-69
2023/05/25 01:37:43;;;;;;;8.80;8.00;;;10.60;99.90;;;;;;5019027;28;20471;-70
2023/05/25 01:40:10;;;;;;;7.60;4.90;;;10.60;99.90;;;;;;5011902;28;20419;-69
2023/05/25 01:42:35;;;;;;;5.70;5.10;;;10.60;99.90;;;;;;5023623;28;20415;-69
2023/05/25 01:45:01;;;;;;;7.13;5.87;;;10.60;99.90;;;;;;5022236;28;20407;-70
2023/05/25 01:48:05;;;;;;;9.40;5.43;;;10.60;99.90;;;;;;5023170;28;20204;-70
2023/05/25 01:50:42;;;;;;;8.90;4.77;;;10.50;99.90;;;;;;4999022;28;20259;-69
2023/05/25 01:53:29;;;;;;;5.33;4.83;;;10.50;99.90;;;;;;5016508;28;20465;-70
2023/05/25 01:56:02;;;;;;;7.07;4.70;;;10.50;99.90;;;;;;5021879;28;20417;-69
2023/05/25 01:58:33;;;;;;;7.43;4.43;;;10.40;99.90;;;;;;5021560;28;20427;-70
2023/05/25 02:00:59;;;;;;;6.77;4.87;;;10.20;99.90;;;;;;5023104;28;20452;-68
2023/05/25 02:03:25;;;;;;;10.77;6.27;;;10.20;99.90;;;;;;5023050;28;20442;-69
2023/05/25 02:05:51;;;;;;;12.07;6.67;;;10.20;99.90;;;;;;5018776;28;20969;-68
2023/05/25 02:08:17;;;;;;;8.77;5.00;;;10.20;99.90;;;;;;5021884;28;20283;-69
2023/05/25 02:10:42;;;;;;;8.17;6.13;;;10.20;99.90;;;;;;5021990;28;20448;-68
2023/05/25 02:13:08;;;;;;;9.27;5.50;;;10.20;99.90;;;;;;5017971;28;20184;-68
2023/05/25 02:15:34;;;;;;;11.50;6.20;;;10.20;99.90;;;;;;5009512;28;20176;-68
2023/05/25 02:17:59;;;;;;;8.97;5.93;;;10.20;99.90;;;;;;5014639;28;20522;-68
2023/05/25 02:20:26;;;;;;;8.43;6.07;;;10.20;99.90;;;;;;5023602;28;20211;-68
2023/05/25 02:22:52;;;;;;;14.37;5.50;;;10.20;99.90;;;;;;5017676;28;20174;-68
2023/05/25 02:25:18;;;;;;;7.07;5.60;;;10.20;99.90;;;;;;5024605;28;20471;-68
2023/05/25 02:27:44;;;;;;;12.27;6.30;;;10.10;99.90;;;;;;5020590;28;20612;-68
2023/05/25 02:30:10;;;;;;;7.70;5.50;;;10.10;99.90;;;;;;5016821;28;20196;-69
2023/05/25 02:32:36;;;;;;;9.93;5.47;;;10.00;99.90;;;;;;5021975;28;20449;-68
2023/05/25 02:35:02;;;;;;;7.20;5.30;;;10.00;99.90;;;;;;5011650;28;20171;-68
2023/05/25 02:37:28;;;;;;;8.50;5.70;;;10.00;99.90;;;;;;5021538;28;20813;-69
2023/05/25 02:39:53;;;;;;;9.63;5.80;;;10.00;99.90;;;;;;5008094;28;20439;-68
2023/05/25 02:42:19;;;;;;;5.97;4.90;;;10.00;99.90;;;;;;5009342;28;20326;-68
2023/05/25 02:44:47;;;;;;;9.07;5.50;;;10.00;99.90;;;;;;5009474;28;20178;-68
2023/05/25 02:47:16;;;;;;;6.83;5.30;;;9.90;99.90;;;;;;5005031;28;20212;-68
2023/05/25 02:49:43;;;;;;;12.03;6.27;;;9.90;99.90;;;;;;5007023;28;20423;-69
2023/05/25 02:52:09;;;;;;;8.23;7.20;;;9.80;99.90;;;;;;4992585;28;20428;-69
2023/05/25 02:54:35;;;;;;;8.83;5.70;;;9.80;99.90;;;;;;5007043;28;20434;-69
2023/05/25 02:57:02;;;;;;;12.07;5.90;;;9.90;99.90;;;;;;5018261;28;20277;-69
2023/05/25 02:59:28;;;;;;;10.23;6.60;;;9.90;99.90;;;;;;5021809;28;20422;-67
2023/05/25 03:01:53;;;;;;;11.77;6.37;;;9.90;99.90;;;;;;5021592;28;20832;-68
2023/05/25 03:04:19;;;;;;;14.63;6.57;;;9.80;99.90;;;;;;5018885;28;20188;-67
2023/05/25 03:06:45;;;;;;;11.07;6.27;;;9.80;99.90;;;;;;5019180;28;20195;-69
2023/05/25 03:09:11;;;;;;;8.50;6.07;;;9.80;99.90;;;;;;5018573;28;20176;-68
2023/05/25 03:11:36;;;;;;;13.40;7.60;;;9.70;99.90;;;;;;5019854;28;20176;-69
2023/05/25 03:14:02;;;;;;;9.30;5.73;;;9.80;99.90;;;;;;5011444;28;20791;-69
2023/05/25 03:16:27;;;;;;;11.20;6.57;;;9.70;99.90;;;;;;5013068;28;20192;-69
2023/05/25 03:18:53;;;;;;;10.70;6.87;;;9.70;99.90;;;;;;5019306;28;20657;-68
2023/05/25 03:21:21;;;;;;;13.50;6.53;;;9.80;99.90;;;;;;5019731;28;20186;-68
2023/05/25 03:23:47;;;;;;;10.93;6.50;;;9.70;99.90;;;;;;5021879;28;20172;-68
2023/05/25 03:26:12;;;;;;;11.87;6.60;;;9.80;99.90;;;;;;5020198;28;20962;-68
2023/05/25 03:28:38;;;;;;;9.40;6.83;;;9.80;99.90;;;;;;5021456;28;20520;-69
2023/05/25 03:31:04;;;;;;;14.00;7.33;;;9.80;99.90;;;;;;5022026;28;20191;-68
2023/05/25 03:33:29;;;;;;;9.83;7.93;;;9.90;99.90;;;;;;5020140;28;20651;-68
2023/05/25 03:35:55;;;;;;;10.60;6.37;;;9.90;99.90;;;;;;5019207;28;20191;-69
2023/05/25 03:38:21;;;;;;;11.03;7.67;;;9.90;99.90;;;;;;5018770;28;20245;-69
2023/05/25 03:40:46;;;;;;;9.57;8.10;;;9.90;99.90;;;;;;5021102;28;20181;-67
2023/05/25 03:43:12;;;;;;;16.93;6.70;;;10.00;99.90;;;;;;5018299;28;20235;-69
2023/05/25 03:45:38;;;;;;;12.73;7.40;;;10.00;99.90;;;;;;5021781;28;20219;-69
2023/05/25 03:48:04;;;;;;;14.60;8.23;;;10.10;99.90;;;;;;5018659;28;20260;-69
2023/05/25 03:50:29;;;;;;;11.37;7.90;;;10.10;99.90;;;;;;5021782;28;20179;-70
2023/05/25 03:52:55;;;;;;;13.93;8.97;;;10.20;99.90;;;;;;5014431;28;20921;-69
2023/05/25 03:55:20;;;;;;;9.67;7.30;;;10.20;99.90;;;;;;5021384;28;20184;-69
2023/05/25 03:57:46;;;;;;;11.57;8.50;;;10.30;99.90;;;;;;5017075;28;20678;-71
2023/05/25 04:00:12;;;;;;;11.40;7.87;;;10.30;99.90;;;;;;5022180;28;20206;-69
2023/05/25 04:02:38;;;;;;;10.93;7.07;;;10.40;99.90;;;;;;5018691;28;20589;-69
2023/05/25 04:05:04;;;;;;;13.53;8.07;;;10.50;99.90;;;;;;5015580;28;20410;-69
2023/05/25 04:07:30;;;;;;;9.50;7.03;;;10.70;99.90;;;;;;5018065;28;20199;-70
2023/05/25 04:09:58;;;;;;;12.40;8.33;;;10.80;99.90;;;;;;5010468;28;20764;-69
2023/05/25 04:12:24;;;;;;;10.77;6.77;;;10.90;99.90;;;;;;5018644;28;20169;-70
2023/05/25 04:14:50;;;;;;;11.80;7.30;;;10.90;99.90;;;;;;5009490;28;20407;-69
2023/05/25 04:17:17;;;;;;;10.23;6.87;;;11.00;99.90;;;;;;5014882;28;20449;-70
2023/05/25 04:19:43;;;;;;;11.50;7.13;;;11.20;99.90;;;;;;5023273;28;20509;-69
2023/05/25 04:22:09;;;;;;;9.73;6.77;;;11.30;99.90;;;;;;5023648;28;20417;-69
2023/05/25 04:24:34;;;;;;;12.00;6.50;;;11.40;99.90;;;;;;5022692;28;20522;-68
2023/05/25 04:27:01;;;;;;;10.57;6.50;;;11.60;99.90;;;;;;5024835;28;20211;-70
2023/05/25 04:29:27;;;;;;;18.30;7.47;;;11.80;99.90;;;;;;5022059;28;20345;-69
2023/05/25 04:31:53;;;;;;;10.17;7.30;;;12.10;99.90;;;;;;5024915;28;20410;-70
2023/05/25 04:34:20;;;;;;;11.10;7.40;;;12.20;99.90;;;;;;5023300;28;20490;-71
2023/05/25 04:36:46;;;;;;;7.27;5.47;;;12.40;99.90;;;;;;5019789;28;20795;-70
2023/05/25 04:39:12;;;;;;;12.60;7.80;;;12.50;99.90;;;;;;5024331;28;20520;-70
2023/05/25 04:41:38;;;;;;;9.50;6.80;;;12.40;99.90;;;;;;5022401;28;20418;-70
2023/05/25 04:44:04;;;;;;;10.67;7.10;;;12.50;99.90;;;;;;5024803;28;20406;-70
2023/05/25 04:46:30;;;;;;;10.30;7.23;;;12.50;99.90;;;;;;5021661;28;20241;-70
2023/05/25 04:48:56;;;;;;;10.90;7.10;;;12.50;99.90;;;;;;5024632;28;20171;-70
2023/05/25 04:51:22;;;;;;;13.37;6.47;;;12.70;99.90;;;;;;5022974;28;20423;-70
2023/05/25 04:53:48;;;;;;;8.93;6.43;;;12.90;99.90;;;;;;5019656;28;20481;-70
2023/05/25 04:56:14;;;;;;;6.20;5.23;;;13.60;99.90;;;;;;5024079;28;20209;-68
2023/05/25 04:58:41;;;;;;;10.57;6.00;;;14.10;99.90;;;;;;5019323;28;20947;-69
2023/05/25 05:01:06;;;;;;;7.83;5.47;;;14.40;99.90;;;;;;5024219;28;20188;-69
2023/05/25 05:03:32;;;;;;;11.50;7.10;;;14.50;99.90;;;;;;5016598;28;20895;-69
2023/05/25 05:05:58;;;;;;;11.10;6.43;;;14.90;99.90;;;;;;5022022;28;20201;-70
2023/05/25 05:08:23;;;;;;;10.47;6.27;;;14.90;99.90;;;;;;5017757;28;20197;-69
2023/05/25 05:10:49;;;;;;;8.67;5.40;;;14.70;99.90;;;;;;5025593;28;20651;-70
2023/05/25 05:13:15;;;;;;;11.43;5.40;;;15.00;99.90;;;;;;5017666;28;20280;-69
2023/05/25 05:15:40;;;;;;;9.10;5.77;;;15.30;99.90;;;;;;5012496;28;20165;-69
2023/05/25 05:18:07;;;;;;;8.43;6.17;;;15.30;99.90;;;;;;5013429;28;20647;-70
2023/05/25 05:20:33;;;;;;;11.07;6.40;;;15.40;99.90;;;;;;5027269;28;20170;-70
2023/05/25 05:22:58;;;;;;;11.57;6.60;;;16.00;99.90;;;;;;5020827;28;20406;-71
2023/05/25 05:25:24;;;;;;;9.97;5.40;;;15.70;99.90;;;;;;5027579;28;20634;-70
2023/05/25 05:27:50;;;;;;;8.40;5.93;;;16.30;99.90;;;;;;5020960;28;20195;-70
2023/05/25 05:30:16;;;;;;;12.00;7.60;;;16.40;99.90;;;;;;5027271;28;20397;-69
2023/05/25 05:32:41;;;;;;;9.53;5.77;;;16.90;99.90;;;;;;5018520;28;20257;-68
2023/05/25 05:35:07;;;;;;;13.17;5.53;;;17.80;99.90;;;;;;5019408;28;20604;-68
2023/05/25 05:37:33;;;;;;;9.73;6.27;;;17.40;99.90;;;;;;5023685;28;20214;-69
2023/05/25 05:39:58;;;;;;;10.63;5.90;;;18.40;99.90;;;;;;5020660;28;20168;-69
2023/05/25 05:42:24;;;;;;;12.70;7.07;;;18.60;99.90;;;;;;5024073;28;20186;-69
2023/05/25 05:44:50;;;;;;;9.27;6.07;;;18.90;99.90;;;;;;5023079;28;20184;-69
2023/05/25 05:47:15;;;;;;;12.23;6.07;;;19.30;99.90;;;;;;5027080;28;20693;-70
2023/05/25 05:49:41;;;;;;;12.73;6.90;;;19.00;99.90;;;;;;5021857;28;20253;-69
2023/05/25 05:52:09;;;;;;;9.90;6.30;;;19.00;99.90;;;;;;5016977;28;20260;-69
2023/05/25 05:54:34;;;;;;;12.27;7.97;;;19.70;99.90;;;;;;5022378;28;20192;-70
2023/05/25 05:57:01;;;;;;;9.27;5.43;;;19.40;99.90;;;;;;5018978;28;20428;-69
2023/05/25 05:59:26;;;;;;;10.53;5.17;;;19.40;99.90;;;;;;5021613;28;20531;-70
2023/05/25 06:01:52;;;;;;;7.40;5.27;;;20.00;99.90;;;;;;5022284;28;20409;-70
2023/05/25 06:04:18;;;;;;;9.50;6.10;;;20.20;99.90;;;;;;5014224;28;20327;-70
2023/05/25 06:06:44;;;;;;;13.40;5.90;;;20.60;99.90;;;;;;5024995;28;20207;-70
2023/05/25 06:09:09;;;;;;;11.90;6.90;;;20.40;99.90;;;;;;5014069;28;20364;-70
2023/05/25 06:11:36;;;;;;;7.23;6.13;;;20.80;99.90;;;;;;5025477;28;20495;-70
2023/05/25 06:14:02;;;;;;;12.73;6.53;;;20.50;99.90;;;;;;5014898;28;20180;-70
2023/05/25 06:16:28;;;;;;;8.37;6.10;;;19.90;99.90;;;;;;5013483;28;20488;-71
2023/05/25 06:18:54;;;;;;;7.93;6.23;;;19.70;99.90;;;;;;5002916;28;20422;-70
2023/05/25 06:21:20;;;;;;;7.13;5.97;;;19.60;99.90;;;;;;5020517;28;20852;-70
2023/05/25 06:23:47;;;;;;;9.60;6.03;;;19.80;99.90;;;;;;5016854;28;20197;-71
2023/05/25 06:26:12;;;;;;;8.37;5.77;;;20.30;99.90;;;;;;5015639;28;20866;-70
2023/05/25 06:28:38;;;;;;;8.87;6.37;;;20.80;99.90;;;;;;5013653;28;20495;-69
2023/05/25 06:31:04;;;;;;;9.37;6.10;;;21.40;99.90;;;;;;5015642;28;20275;-71
2023/05/25 06:33:30;;;;;;;9.40;5.70;;;21.60;99.90;;;;;;5012331;28;20188;-71
2023/05/25 06:35:59;;;;;;;8.07;5.53;;;21.40;99.90;;;;;;5008489;28;20180;-70
2023/05/25 06:38:26;;;;;;;9.43;5.60;;;21.50;99.90;;;;;;5010716;28;20427;-70
2023/05/25 06:40:51;;;;;;;9.70;5.50;;;21.10;99.90;;;;;;5011549;28;20873;-70
2023/05/25 06:43:17;;;;;;;7.33;5.00;;;20.90;99.90;;;;;;5014861;28;20427;-70
2023/05/25 06:45:43;;;;;;;8.27;3.80;;;22.30;99.90;;;;;;5020133;28;20202;-71
2023/05/25 06:48:08;;;;;;;7.70;4.57;;;22.70;99.90;;;;;;5015044;28;20350;-70
2023/05/25 06:50:34;;;;;;;9.43;5.00;;;21.70;99.90;;;;;;5023258;28;20203;-70
2023/05/25 06:52:59;;;;;;;9.33;5.70;;;21.50;99.90;;;;;;5017788;28;20516;-70
2023/05/25 06:55:25;;;;;;;10.87;4.63;;;21.30;99.90;;;;;;5022166;28;20261;-70
2023/05/25 06:57:51;;;;;;;9.33;4.53;;;22.20;99.90;;;;;;5019637;28;20203;-69
2023/05/25 07:00:17;;;;;;;10.47;5.70;;;22.90;99.90;;;;;;5011707;28;20239;-69
2023/05/25 07:02:43;;;;;;;8.40;4.60;;;22.70;99.90;;;;;;5011221;28;20171;-70
2023/05/25 07:05:09;;;;;;;6.00;3.60;;;22.80;99.90;;;;;;5011537;28;20423;-70
2023/05/25 07:07:35;;;;;;;5.33;4.17;;;22.30;99.90;;;;;;5022940;28;20290;-70
2023/05/25 07:10:02;;;;;;;7.70;5.03;;;23.10;99.90;;;;;;5009014;28;20855;-70
2023/05/25 07:12:28;;;;;;;10.53;4.60;;;22.70;99.90;;;;;;5022591;28;20168;-71
2023/05/25 07:14:54;;;;;;;6.87;5.00;;;23.50;99.90;;;;;;5015624;28;20506;-70
2023/05/25 07:17:20;;;;;;;12.27;4.23;;;23.10;99.90;;;;;;5022314;28;20199;-69
2023/05/25 07:19:47;;;;;;;5.57;4.33;;;22.40;99.90;;;;;;5028287;28;20225;-68
2023/05/25 07:22:15;;;;;;;8.43;4.07;;;23.60;99.90;;;;;;5022121;28;20450;-70
2023/05/25 07:24:41;;;;;;;5.83;3.80;;;23.80;99.90;;;;;;5020529;28;20410;-69
2023/05/25 07:27:07;;;;;;;5.60;3.63;;;24.80;99.90;;;;;;5021745;28;20461;-70
2023/05/25 07:29:32;;;;;;;8.73;3.60;;;25.40;99.90;;;;;;5018635;28;20512;-69
2023/05/25 07:31:58;;;;;;;6.83;3.87;;;24.00;99.90;;;;;;5016154;28;20197;-70
2023/05/25 07:34:23;;;;;;;6.93;3.23;;;24.30;99.90;;;;;;5010380;28;20180;-69
2023/05/25 07:36:49;;;;;;;8.00;3.97;;;24.20;99.90;;;;;;5007999;28;20215;-69
2023/05/25 07:39:14;;;;;;;7.63;3.27;;;24.50;99.90;;;;;;5017009;28;20232;-69
2023/05/25 07:41:40;;;;;;;3.57;2.77;;;23.80;99.90;;;;;;5018202;28;20670;-68
2023/05/25 07:44:06;;;;;;;7.03;3.20;;;24.00;99.50;;;;;;5001235;28;20176;-69
2023/05/25 07:46:31;;;;;;;5.43;3.30;;;25.10;97.00;;;;;;5019313;28;20207;-70
2023/05/25 07:48:58;;;;;;;6.40;2.97;;;24.80;95.00;;;;;;5020802;28;20552;-69
2023/05/25 07:51:27;;;;;;;5.90;3.27;;;23.80;98.20;;;;;;5020163;28;20171;-69
2023/05/25 07:53:55;;;;;;;6.07;4.03;;;25.80;96.00;;;;;;5021071;28;20449;-70
2023/05/25 07:56:21;;;;;;;5.00;3.40;;;25.20;94.60;;;;;;5013546;28;20501;-70
2023/05/25 07:58:46;;;;;;;5.10;3.43;;;24.20;95.70;;;;;;5013634;28;20453;-69
2023/05/25 08:01:13;;;;;;;7.63;3.17;;;23.90;96.70;;;;;;5021398;28;20202;-71
2023/05/25 08:03:39;;;;;;;5.30;3.27;;;24.20;95.30;;;;;;5018154;28;20196;-69
2023/05/25 08:06:05;;;;;;;7.10;3.67;;;23.60;95.90;;;;;;5021577;28;20457;-69
2023/05/25 08:08:31;;;;;;;4.10;3.00;;;22.00;97.10;;;;;;5019127;28;20171;-69
2023/05/25 08:10:56;;;;;;;5.73;2.87;;;24.00;96.80;;;;;;5019772;28;20417;-68
2023/05/25 08:13:22;;;;;;;5.27;2.97;;;23.60;96.30;;;;;;5020101;28;20207;-69
2023/05/25 08:15:48;;;;;;;4.87;2.80;;;22.70;95.50;;;;;;5019571;28;20581;-69
2023/05/25 08:18:14;;;;;;;6.47;3.30;;;23.70;96.60;;;;;;5016986;28;20259;-69
2023/05/25 08:20:40;;;;;;;4.70;3.03;;;24.20;95.50;;;;;;5023777;28;20514;-69
2023/05/25 08:23:06;;;;;;;12.27;4.03;;;23.50;97.00;;;;;;5018063;28;20422;-69
2023/05/25 08:25:31;;;;;;;7.33;2.90;;;23.50;95.40;;;;;;5023817;28;20203;-69
2023/05/25 08:27:57;;;;;;;4.30;2.63;;;23.50;97.30;;;;;;5017353;28;20204;-69
2023/05/25 08:30:22;;;;;;;6.30;2.70;;;24.10;94.00;;;;;;5024272;28;20182;-69
2023/05/25 08:32:48;;;;;;;6.37;3.63;;;23.80;93.40;;;;;;5010647;28;20592;-72
2023/05/25 08:35:14;;;;;;;9.20;3.23;;;22.00;95.30;;;;;;5014756;28;20199;-70
2023/05/25 08:37:39;;;;;;;8.20;4.20;;;22.90;96.90;;;;;;5013565;28;20211;-70
2023/05/25 08:40:14;;;;;;;6.60;3.50;;;23.60;95.00;;;;;;5016967;28;20183;-70
2023/05/25 08:42:44;;;;;;;6.77;3.80;;;25.30;92.90;;;;;;5021668;28;20175;-68
2023/05/25 08:45:10;;;;;;;10.40;3.70;;;23.50;94.80;;;;;;5017809;28;20780;-68
2023/05/25 08:47:43;;;;;;;7.20;2.73;;;23.30;95.50;;;;;;5022125;28;20441;-69
2023/05/25 08:50:11;;;;;;;5.50;2.80;;;24.10;93.60;;;;;;5018924;28;20407;-70
2023/05/25 08:52:44;;;;;;;5.33;3.00;;;23.40;94.80;;;;;;5021898;28;20547;-69
2023/05/25 08:55:11;;;;;;;4.77;3.90;;;23.50;95.30;;;;;;5019803;28;20868;-70
2023/05/25 08:57:46;;;;;;;10.97;3.73;;;22.90;96.70;;;;;;5014858;28;20550;-70
2023/05/25 09:00:14;;;;;;;6.50;3.00;;;22.10;98.00;;;;;;5021166;28;20428;-69
2023/05/25 09:03:05;;;;;;;3.53;2.90;;;22.10;97.10;;;;;;5017490;28;20409;-69
2023/05/25 09:05:33;;;;;;;4.43;3.57;;;21.40;97.10;;;;;;5020123;28;20486;-70
2023/05/25 09:07:59;;;;;;;6.07;3.23;;;22.30;97.10;;;;;;5019724;28;20453;-71
2023/05/25 09:10:27;;;;;;;5.53;2.17;;;22.50;93.70;;;;;;5020301;28;20508;-69
2023/05/25 09:12:54;;;;;;;5.27;2.50;;;22.20;94.00;;;;;;5022045;28;20420;-68
2023/05/25 09:15:20;;;;;;;6.00;3.10;;;23.90;94.50;;;;;;5021893;28;20425;-70
2023/05/25 09:17:45;;;;;;;6.50;3.87;;;23.50;93.50;;;;;;5025830;28;20434;-69
2023/05/25 09:20:14;;;;;;;7.93;3.47;;;24.00;92.80;;;;;;5030285;28;20175;-69
2023/05/25 09:22:41;;;;;;;7.57;3.27;;;22.40;93.80;;;;;;5021181;28;20705;-71
2023/05/25 09:25:09;;;;;;;6.23;3.20;;;21.80;95.30;;;;;;5025329;28;20805;-71
2023/05/25 09:27:38;;;;;;;6.20;3.03;;;22.10;95.40;;;;;;5021275;28;21048;-70
2023/05/25 09:30:04;;;;;;;7.07;3.30;;;21.20;96.50;;;;;;5023403;28;20429;-70
2023/05/25 09:32:30;;;;;;;7.63;3.77;;;21.50;98.00;;;;;;5013429;28;20437;-70
2023/05/25 09:35:06;;;;;;;4.37;3.43;;;21.50;96.70;;;;;;5012858;28;20421;-70
2023/05/25 09:37:31;;;;;;;4.63;3.03;;;22.00;95.80;;;;;;5023597;28;20791;-71
2023/05/25 09:39:57;;;;;;;7.70;3.80;;;22.30;96.90;;;;;;5020015;28;20421;-70
2023/05/25 09:42:23;;;;;;;7.73;3.97;;;22.60;96.50;;;;;;5022812;28;20249;-69
2023/05/25 09:44:48;;;;;;;7.57;4.47;;;22.60;97.10;;;;;;5021066;28;20171;-70
2023/05/25 09:47:16;;;;;;;7.70;3.43;;;22.20;98.10;;;;;;5015756;28;20219;-70
2023/05/25 09:49:43;;;;;;;9.53;4.70;;;22.80;98.50;;;;;;5023632;28;20606;-72
2023/05/25 09:52:10;;;;;;;5.73;3.80;;;21.40;98.20;;;;;;5016607;28;20414;-71
2023/05/25 09:54:37;;;;;;;5.57;3.70;;;22.40;98.10;;;;;;5021404;28;20422;-68
2023/05/25 09:57:04;;;;;;;5.73;4.03;;;23.40;98.60;;;;;;5018400;28;20439;-70
2023/05/25 09:59:30;;;;;;;9.27;3.70;;;24.00;97.30;;;;;;5013046;28;20473;-68
2023/05/25 10:01:56;;;;;;;9.50;4.60;;;23.50;96.00;;;;;;5020883;28;20451;-69
2023/05/25 10:04:22;;;;;;;5.23;4.40;;;23.80;96.40;;;;;;5013326;28;20526;-70
2023/05/25 10:06:51;;;;;;;6.33;3.20;;;23.60;96.70;;;;;;5023431;28;20458;-71
2023/05/25 10:09:19;;;;;;;4.23;3.40;;;23.60;94.20;;;;;;5013604;28;20183;-70
2023/05/25 10:11:47;;;;;;;5.87;3.57;;;22.70;96.40;;;;;;5009794;28;20450;-70
2023/05/25 10:14:22;;;;;;;4.83;3.33;;;22.10;95.20;;;;;;5008832;28;20460;-70
2023/05/25 10:16:50;;;;;;;6.37;3.50;;;21.80;96.60;;;;;;5013176;28;20522;-68
2023/05/25 10:19:24;;;;;;;4.67;2.80;;;21.40;96.80;;;;;;5018395;28;20420;-70
2023/05/25 10:22:20;;;;;;;5.90;3.23;;;22.30;96.40;;;;;;5012157;28;20417;-69
2023/05/25 10:25:02;;;;;;;5.10;3.07;;;21.80;96.10;;;;;;5021153;28;20834;-70
2023/05/25 10:27:50;;;;;;;4.90;3.30;;;22.10;96.70;;;;;;5020933;28;20464;-69
2023/05/25 10:30:16;;;;;;;5.07;3.63;;;21.30;98.70;;;;;;5014175;28;20550;-69
2023/05/25 10:32:45;;;;;;;10.53;4.70;;;21.50;98.90;;;;;;5007611;28;20721;-69
2023/05/25 10:35:12;;;;;;;7.57;4.57;;;22.20;97.50;;;;;;5010947;28;20503;-69
2023/05/25 10:37:39;;;;;;;7.93;4.10;;;22.10;98.30;;;;;;5022438;28;20638;-77
2023/05/25 10:40:07;;;;;;;6.80;4.50;;;22.40;97.70;;;;;;5019284;28;20813;-76
2023/05/25 10:42:35;;;;;;;8.37;4.10;;;22.40;98.10;;;;;;5022978;28;20413;-69
2023/05/25 10:45:02;;;;;;;6.00;3.23;;;22.00;97.90;;;;;;5011183;28;20525;-73
2023/05/25 10:47:28;;;;;;;3.90;3.50;;;20.40;98.50;;;;;;5018286;28;20569;-70
2023/05/25 10:49:58;;;;;;;6.30;3.63;;;20.60;99.50;;;;;;5021127;28;20500;-75
2023/05/25 10:52:28;;;;;;;5.50;3.17;;;21.40;97.90;;;;;;5004195;28;20236;-70
2023/05/25 10:55:00;;;;;;;3.70;3.30;;;21.30;98.40;;;;;;5006904;28;20436;-71
2023/05/25 10:57:26;;;;;;;9.37;3.90;;;20.90;97.40;;;;;;4990606;28;20772;-69
2023/05/25 10:59:59;;;;;;;4.97;3.60;;;21.30;97.20;;;;;;5019045;28;20419;-70
2023/05/25 11:02:28;;;;;;;6.40;3.40;;;21.60;97.10;;;;;;5016637;28;20402;-69
2023/05/25 11:05:19;;;;;;;6.27;3.83;;;21.80;97.50;;;;;;5016328;28;20443;-70
2023/05/25 11:07:56;;;;;;;5.10;3.80;;;20.60;97.30;;;;;;5015435;28;20443;-70
2023/05/25 11:10:40;;;;;;;9.63;4.30;;;20.60;98.00;;;;;;5009433;28;20404;-70
2023/05/25 11:13:43;;;;;;;5.50;2.90;;;19.90;99.40;;;;;;5019854;28;20504;-71
2023/05/25 11:16:16;;;;;;;6.30;3.90;;;20.50;99.90;;;;;;4968396;28;20809;-71
2023/05/25 11:18:58;;;;;;;9.27;4.60;;;20.70;99.30;;;;;;5013982;28;20402;-70
2023/05/25 11:21:26;;;;;;;7.10;4.33;;;21.10;98.60;;;;;;5021075;28;20921;-69
2023/05/25 11:24:10;;;;;;;7.50;4.23;;;20.70;99.10;;;;;;5021494;28;20420;-69
2023/05/25 11:26:36;;;;;;;10.10;4.60;;;20.90;99.90;;;;;;5018386;28;20994;-70
2023/05/25 11:29:12;;;;;;;5.67;3.50;;;20.60;99.90;;;;;;5018978;28;20403;-70
2023/05/25 11:31:38;;;;;;;6.30;3.57;;;20.90;99.90;;;;;;5017382;28;20774;-70
2023/05/25 11:34:04;;;;;;;7.70;4.33;;;20.80;99.50;;;;;;5019442;28;20406;-70
2023/05/25 11:36:33;;;;;;;3.77;3.40;;;21.30;98.40;;;;;;5014813;28;20456;-70
2023/05/25 11:39:05;;;;;;;8.10;4.00;;;20.80;98.50;;;;;;5024798;28;20541;-70
2023/05/25 11:41:31;;;;;;;7.53;3.60;;;21.50;98.40;;;;;;5015325;28;20428;-70
2023/05/25 11:44:04;;;;;;;5.50;3.97;;;22.50;96.80;;;;;;5023795;28;20615;-70
2023/05/25 11:46:31;;;;;;;7.27;3.30;;;22.40;97.30;;;;;;5014497;28;20274;-70
2023/05/25 11:48:57;;;;;;;4.17;3.63;;;21.40;98.60;;;;;;5020642;28;20455;-69
2023/05/25 11:51:25;;;;;;;9.60;4.03;;;21.70;98.00;;;;;;5015726;28;20403;-70
2023/05/25 11:53:51;;;;;;;7.10;4.10;;;21.50;97.90;;;;;;5008986;28;20793;-70
2023/05/25 11:56:18;;;;;;;5.07;3.47;;;21.20;97.60;;;;;;5010614;28;20542;-69
2023/05/25 11:58:46;;;;;;;5.73;3.70;;;21.30;97.40;;;;;;5018703;28;20532;-69
2023/05/25 12:01:15;;;;;;;5.27;3.73;;;21.10;98.10;;;;;;5013565;28;20404;-70
2023/05/25 12:03:41;;;;;;;4.67;3.90;;;21.40;98.40;;;;;;5019899;28;20499;-69
2023/05/25 12:06:07;;;;;;;5.70;3.40;;;21.40;98.30;;;;;;5017042;28;20489;-70
2023/05/25 12:08:36;;;;;;;7.27;4.40;;;20.80;99.50;;;;;;5020565;28;20449;-70
2023/05/25 12:11:02;;;;;;;4.10;3.70;;;20.60;99.90;;;;;;5018835;28;20191;-70
2023/05/25 12:13:29;;;;;;;7.80;4.97;;;20.60;99.90;;;;;;5021647;28;21044;-69
2023/05/25 12:15:59;;;;;;;6.57;4.67;;;20.90;99.90;;;;;;5018827;28;20507;-70
2023/05/25 12:18:27;;;;;;;7.50;4.27;;;20.90;99.90;;;;;;5015946;28;20498;-70
2023/05/25 12:20:53;;;;;;;5.70;4.33;;;21.10;99.90;;;;;;5025114;28;20794;-70
2023/05/25 12:23:19;;;;;;;8.13;4.53;;;21.00;99.80;;;;;;5017638;28;20504;-69
2023/05/25 12:25:45;;;;;;;7.13;4.60;;;21.10;99.90;;;;;;5022520;28;20581;-69
2023/05/25 12:28:14;;;;;;;7.13;4.53;;;21.00;99.90;;;;;;5021947;28;20427;-69
2023/05/25 12:30:40;;;;;;;7.50;4.60;;;20.50;99.90;;;;;;5017472;28;20166;-70
2023/05/25 12:33:06;;;;;;;7.37;5.83;;;20.60;99.90;;;;;;5017299;28;20460;-71
2023/05/25 12:35:49;;;;;;;7.73;5.23;;;20.90;99.90;;;;;;5017690;28;20173;-69
2023/05/25 12:38:16;;;;;;;8.50;4.67;;;21.20;99.90;;;;;;5015496;28;20712;-70
2023/05/25 12:40:42;;;;;;;6.70;5.00;;;21.10;99.90;;;;;;5012253;28;20544;-69
2023/05/25 12:43:10;;;;;;;6.87;4.93;;;21.20;99.90;;;;;;5021166;28;20847;-70
2023/05/25 12:45:42;;;;;;;8.43;4.63;;;21.30;99.90;;;;;;5020896;28;20535;-70
2023/05/25 12:48:07;;;;;;;7.20;5.10;;;21.20;99.90;;;;;;5014912;28;20514;-70
2023/05/25 12:50:33;;;;;;;11.20;4.73;;;21.00;99.90;;;;;;5023691;28;20475;-70